Henrico, North Carolina
Current Conditions -  °F | °C
As of 2:16 AM on Sunday 23 Nov 2014 (Local Time) from KAVC Reporting Station
Clear Clear  
Wind Chill: 31°   Ceiling: Unl
Heat Index: 31°   Visibility: 10mi
Dew Point: 22°   Wind: 0mph
Humidity: 68%   Direction: NA
Pressure: 30.35"   Gusts: NA
Location:  36.53°N, 77.83°W
Report Text: KAVC 230716Z AUTO 00000KT 10SM CLR 00/M06 A3035 RMK AO2 T10041056
Loading
Personal Weather Stations






























Interactive Weather Map New forecast layout! Learn more

10-Day Weather Forecast

Advertisements
Track Severe Weather on mobile